Latest Weather Observations for Albion Park

IDN60801

Issued at 7:33 am EDT Sunday 1 February 2015 (issued every 30 minutes, with the page automatically refreshed every 10 minutes)

About weather observations | Map of weather stations | Latest weather observations for NSW | Other Formats
Station Details ID: 068241 Name: WOLLONGONG AIRPORT Lat: -34.56 Lon: 150.79 Height: 8.0 m
Data from the previous 72 hours. | See also: Recent months at Albion Park
Date/Time
EDT
Temp
°C
App
Temp
°C
Dew
Point
Rel
Hum
%
Delta-T
°C
Wind Press
QNH
hPa
Press
MSL
hPa
Rain
since 9 am
mm
Dir
 
Spd
km/h
Gust
km/h
Spd
kts
Gust
kts
01/07:30am 17.1 17.7 15.3 89 1.0 WNW 6 7 3 4 1009.5 1009.5 0.0
01/07:00am 16.1 16.2 15.5 96 0.3 W 9 11 5 6 1009.2 1009.2 0.0
01/06:30am 15.3 15.7 14.7 96 0.3 W 6 9 3 5 1009.0 1009.0 0.0
01/06:00am 14.7 14.7 13.7 94 0.6 WSW 6 7 3 4 1008.8 1008.8 0.0
01/05:30am 15.2 14.9 14.4 95 0.5 W 9 11 5 6 1008.6 1008.6 0.0
01/05:00am 15.3 15.2 14.0 92 0.7 W 7 9 4 5 1008.3 1008.3 0.0
01/04:30am 16.0 15.7 14.4 90 0.9 W 9 11 5 6 1008.3 1008.3 0.0
01/04:00am 16.3 16.1 14.7 90 0.9 W 9 13 5 7 1008.3 1008.3 0.0
01/03:30am 16.8 17.2 15.2 90 0.9 W 7 7 4 4 1008.3 1008.3 0.0
01/03:00am 17.0 17.6 15.2 89 1.0 W 6 9 3 5 1008.5 1008.5 0.0
01/02:30am 17.0 17.6 15.2 89 1.0 W 6 7 3 4 1008.7 1008.7 0.0
01/02:00am 17.1 17.4 14.9 87 1.3 W 7 9 4 5 1009.0 1009.0 0.0
01/01:30am 17.5 17.8 15.1 86 1.4 WNW 7 9 4 5 1009.1 1009.1 0.0
01/01:00am 17.7 18.1 15.3 86 1.4 WNW 7 9 4 5 1009.3 1009.3 0.0
01/12:30am 18.1 18.6 15.5 85 1.5 W 7 9 4 5 1009.5 1009.5 0.0
01/12:00am 18.4 18.9 15.5 83 1.7 W 7 9 4 5 1009.7 1009.7 0.0
 
Date/Time
EDT
Temp
°C
App
Temp
°C
Dew
Point
Rel
Hum
%
Delta-T
°C
Wind Press
QNH
hPa
Press
MSL
hPa
Rain
since 9 am
mm
Dir
 
Spd
km/h
Gust
km/h
Spd
kts
Gust
kts
31/11:30pm 18.6 19.3 15.5 82 1.8 W 6 7 3 4 1009.7 1009.7 0.0
31/11:00pm 18.8 19.5 15.5 81 1.9 W 6 7 3 4 1009.7 1009.7 0.0
31/10:30pm 18.8 19.2 15.3 80 2.1 WSW 7 7 4 4 1009.6 1009.6 0.0
31/10:00pm 18.9 18.9 15.2 79 2.2 W 9 11 5 6 1009.5 1009.5 0.0
31/09:30pm 19.5 19.4 15.0 75 2.6 WSW 9 11 5 6 1009.2 1009.2 0.0
31/09:00pm 19.6 20.2 15.7 78 2.3 WSW 7 11 4 6 1008.7 1008.7 0.0
31/08:30pm 20.5 21.0 15.1 71 3.2 S 6 7 3 4 1008.3 1008.3 0.0
31/08:00pm 21.0 21.1 13.9 64 4.1 SE 6 7 3 4 1008.0 1008.0 0.0
31/07:30pm 21.2 20.9 13.4 61 4.5 SE 7 11 4 6 1007.8 1007.8 0.0
31/07:00pm 21.4 20.2 12.8 58 4.9 ESE 11 15 6 8 1007.4 1007.4 0.0
31/06:30pm 21.9 20.5 12.2 54 5.5 SE 11 19 6 10 1007.1 1007.1 0.0
31/05:30pm 22.5 20.2 13.0 55 5.4 SE 17 22 9 12 1006.6 1006.6 0.0
31/05:00pm 22.8 20.9 11.8 50 6.2 ESE 13 26 7 14 1006.6 1006.6 0.0
31/04:30pm 22.8 20.1 11.8 50 6.2 ESE 17 24 9 13 1006.7 1006.7 0.0
31/04:00pm 23.7 21.3 11.4 46 6.9 ESE 15 22 8 12 1006.6 1006.6 0.0
31/03:30pm 23.4 21.4 11.5 47 6.7 ESE 13 22 7 12 1006.5 1006.5 0.0
31/03:00pm 23.9 22.1 12.2 48 6.7 SE 13 20 7 11 1006.5 1006.5 0.0
31/02:30pm 23.9 21.1 12.5 49 6.5 E 19 26 10 14 1006.4 1006.4 0.0
31/02:00pm 23.7 21.9 12.0 48 6.7 ESE 13 20 7 11 1006.4 1006.4 0.0
31/01:30pm 23.9 22.5 12.2 48 6.7 ENE 11 17 6 9 1006.6 1006.6 0.0
31/01:00pm 23.7 21.4 13.0 51 6.2 SE 17 24 9 13 1006.9 1006.9 0.0
31/12:30pm 23.4 20.9 11.1 46 6.9 E 15 24 8 13 1007.0 1007.0 0.0
31/12:00pm 23.9 21.4 12.2 48 6.7 NE 17 20 9 11 1007.1 1007.1 0.0
31/11:30am 23.2 20.5 11.6 48 6.5 NE 17 20 9 11 1007.5 1007.5 0.0
31/11:00am 23.1 20.6 10.9 46 6.8 NE 15 20 8 11 1007.8 1007.8 0.0
31/10:30am 22.3 19.5 10.1 46 6.6 NE 15 20 8 11 1008.1 1008.1 0.0
31/10:00am 22.3 20.2 9.8 45 6.8 ENE 11 15 6 8 1008.1 1008.1 0.0
31/09:30am 22.0 21.2 11.7 52 5.8 NE 7 13 4 7 1008.1 1008.1 0.0
31/09:00am 20.6 20.4 11.8 57 4.9 N 4 7 2 4 1008.1 1008.1 0.0
31/08:30am 18.8 19.3 12.8 68 3.4 WNW 2 7 1 4 1008.0 1008.0 0.0
31/08:00am 16.5 16.6 11.4 72 2.8 WNW 2 6 1 3 1008.0 1008.0 0.0
31/07:30am 14.8 15.1 12.1 84 1.5 SW 2 7 1 4 1007.8 1007.8 0.0
31/07:00am 12.8 13.2 11.2 90 0.8 CALM 0 0 0 0 1007.5 1007.5 0.0
31/06:30am 12.3 12.5 10.5 89 0.9 CALM 0 0 0 0 1007.2 1007.2 0.0
31/06:00am 12.6 11.5 10.5 87 1.1 WSW 7 11 4 6 1007.0 1007.0 0.0
31/05:30am 13.4 13.6 10.6 83 1.5 CALM 0 0 0 0 1006.7 1006.7 0.0
31/05:00am 14.3 13.7 10.5 78 2.0 WSW 4 9 2 5 1006.6 1006.6 0.0
31/04:30am 14.9 12.7 10.7 76 2.2 WSW 13 15 7 8 1006.5 1006.5 0.0
31/04:00am 16.0 14.5 10.5 70 2.9 W 9 15 5 8 1006.4 1006.4 0.0
31/03:30am 16.2 14.9 11.2 72 2.7 SW 9 19 5 10 1006.6 1006.6 0.0
31/03:00am 16.1 15.3 12.8 81 1.8 SW 9 11 5 6 1006.7 1006.7 0.0
31/02:30am 15.9 16.2 13.4 85 1.4 SW 4 9 2 5 1006.7 1006.7 0.0
31/02:00am 15.7 15.5 13.7 88 1.1 SW 7 9 4 5 1006.9 1006.9 0.0
31/01:30am 15.1 14.5 13.6 91 0.8 SW 9 17 5 9 1007.1 1007.1 0.0
31/01:00am 14.5 14.7 13.0 91 0.8 SW 4 13 2 7 1007.3 1007.3 0.0
31/12:30am 14.6 15.2 13.0 90 0.9 SW 2 7 1 4 1007.4 1007.4 0.0
31/12:00am 15.0 15.2 12.9 87 1.2 SW 4 7 2 4 1007.6 1007.6 0.0
 
Date/Time
EDT
Temp
°C
App
Temp
°C
Dew
Point
Rel
Hum
%
Delta-T
°C
Wind Press
QNH
hPa
Press
MSL
hPa
Rain
since 9 am
mm
Dir
 
Spd
km/h
Gust
km/h
Spd
kts
Gust
kts
30/11:30pm 15.5 15.2 12.8 84 1.5 SW 6 7 3 4 1007.8 1007.8 0.0
30/11:00pm 15.9 16.1 13.0 83 1.6 SW 4 9 2 5 1007.9 1007.9 0.0
30/10:30pm 16.6 16.4 13.5 82 1.7 SW 7 11 4 6 1008.0 1008.0 0.0
30/10:00pm 17.1 16.9 13.0 77 2.3 SW 6 7 3 4 1007.9 1007.9 0.0
30/09:30pm 17.4 17.4 13.5 78 2.2 SSW 6 7 3 4 1007.7 1007.7 0.0
30/09:00pm 18.7 18.1 13.6 72 2.9 SSW 9 13 5 7 1007.6 1007.6 0.0
30/08:30pm 19.7 18.7 13.4 67 3.6 SSE 11 15 6 8 1007.1 1007.1 0.0
30/08:00pm 20.0 18.5 13.2 65 3.9 SSE 13 17 7 9 1006.7 1006.7 0.0
30/07:30pm 21.0 19.2 13.4 62 4.4 SSE 15 20 8 11 1006.4 1006.4 0.0
30/07:00pm 22.6 20.2 13.9 58 5.1 S 19 24 10 13 1006.0 1006.0 0.0
30/06:30pm 23.1 21.7 14.4 58 5.1 SSE 15 26 8 14 1005.7 1005.7 0.0
30/06:00pm 23.5 23.5 14.2 56 5.5 SSE 7 11 4 6 1005.4 1005.4 0.0
30/05:30pm 22.6 21.8 13.9 58 5.1 ESE 11 19 6 10 1005.5 1005.5 0.0
30/05:00pm 23.1 21.3 12.1 50 6.2 SE 13 17 7 9 1005.3 1005.3 0.0
30/04:30pm 23.3 21.4 11.7 48 6.5 S 13 22 7 12 1005.6 1005.6 0.0
30/04:00pm 24.6 20.4 9.7 39 8.2 WSW 22 35 12 19 1005.5 1005.5 0.0
30/03:30pm 25.5 21.4 10.1 38 8.5 SSW 22 30 12 16 1005.4 1005.4 0.0
30/03:00pm 25.2 20.8 10.3 39 8.3 WSW 24 35 13 19 1005.5 1005.5 0.0
30/02:30pm 24.8 20.5 10.7 41 7.9 WSW 24 37 13 20 1005.8 1005.8 0.0
30/02:00pm 25.6 22.7 12.8 45 7.4 WSW 20 33 11 18 1006.3 1006.3 0.0
30/01:30pm 24.0 20.7 11.7 46 6.9 SW 20 28 11 15 1006.6 1006.6 0.0
30/01:00pm 23.4 18.8 11.1 46 6.9 SW 26 39 14 21 1007.2 1007.2 0.0
30/12:30pm 22.3 17.1 10.1 46 6.6 WSW 28 39 15 21 1007.6 1007.6 0.0
30/12:00pm 19.9 17.0 9.5 51 5.5 W 15 22 8 12 1008.3 1008.3 0.0
30/11:30am 19.4 15.4 9.0 51 5.5 WSW 20 28 11 15 1008.5 1008.5 0.0
30/11:00am 19.2 13.5 8.5 50 5.6 SW 28 39 15 21 1008.8 1008.8 0.0
30/10:36am 19.8 13.6 7.9 46 6.1 SW 30 48 16 26 1009.0 1009.0 0.0
30/10:30am 20.4 15.7 9.3 49 5.9 SW 24 35 13 19 1009.0 1009.0 0.0
30/10:23am 20.2 14.5 8.5 47 6.1 SW 28 46 15 25 1009.0 1009.0 0.0
30/10:00am 20.8 15.4 9.4 48 6.1 SW 28 35 15 19 1008.9 1008.9 0.0
30/09:43am 20.2 14.1 8.2 46 6.2 SW 30 50 16 27 1009.0 1009.0 0.0
30/09:30am 19.9 13.4 8.3 47 6.0 SW 32 46 17 25 1009.0 1009.0 0.0
30/09:26am 20.1 14.5 8.8 48 5.9 WSW 28 46 15 25 1008.9 1008.9 0.0
30/09:00am 19.4 13.6 8.1 48 5.8 SW 28 39 15 21 1009.0 1009.0 0.0
30/08:30am 19.0 13.7 8.6 51 5.4 WSW 26 37 14 20 1009.1 1009.1 0.0
30/08:20am 18.5 12.7 7.9 50 5.4 WSW 28 52 15 28 1009.2 1009.2 0.0
30/08:00am 18.0 13.3 7.7 51 5.2 WSW 22 33 12 18 1009.1 1009.1 0.0
30/07:30am 17.2 13.0 7.5 53 4.9 SW 19 28 10 15 1009.0 1009.0 0.0
30/07:00am 16.7 11.2 7.4 54 4.7 SW 26 44 14 24 1008.8 1008.8 0.0
30/06:30am 16.5 11.0 7.4 55 4.5 SW 26 41 14 22 1008.6 1008.6 0.0
30/06:00am 15.8 11.9 7.3 57 4.2 SW 17 26 9 14 1008.5 1008.5 0.0
30/05:30am 16.6 12.8 7.5 55 4.6 WSW 17 30 9 16 1008.3 1008.3 0.0
30/05:00am 15.1 12.1 7.6 61 3.7 WSW 13 32 7 17 1008.4 1008.4 0.0
30/04:30am 15.6 13.7 7.4 58 4.1 NE 7 9 4 5 1008.5 1008.5 0.0
30/04:00am 15.9 13.7 7.7 58 4.1 WSW 9 17 5 9 1008.9 1008.9 0.0
30/03:30am 16.4 12.9 7.3 55 4.5 WSW 15 30 8 16 1009.2 1009.2 0.0
30/03:13am 17.2 13.7 7.3 52 5.0 WSW 15 41 8 22 1009.1 1009.1 0.0
30/03:00am 16.0 14.1 7.5 57 4.2 W 7 13 4 7 1009.4 1009.4 0.0
30/02:30am 17.4 13.5 7.2 51 5.1 WSW 17 32 9 17 1009.4 1009.4 0.0
30/02:00am 17.2 14.2 7.5 53 4.9 WNW 13 20 7 11 1009.7 1009.7 0.0
30/01:30am 17.0 14.4 7.9 55 4.6 NW 11 17 6 9 1010.0 1010.0 0.0
30/01:00am 17.2 14.9 7.3 52 5.0 WSW 9 15 5 8 1010.3 1010.3 0.0
30/12:30am 17.5 13.6 7.3 51 5.1 SSW 17 35 9 19 1010.8 1010.8 0.0
30/12:00am 17.5 13.7 7.5 52 5.0 SW 17 30 9 16 1011.1 1011.1 0.0
 
Date/Time
EDT
Temp
°C
App
Temp
°C
Dew
Point
Rel
Hum
%
Delta-T
°C
Wind Press
QNH
hPa
Press
MSL
hPa
Rain
since 9 am
mm
Dir
 
Spd
km/h
Gust
km/h
Spd
kts
Gust
kts
29/11:30pm 17.9 13.2 7.9 52 5.1 WSW 22 43 12 23 1011.2 1011.2 0.0
29/11:00pm 17.6 13.7 8.5 55 4.7 SW 19 30 10 16 1011.5 1011.5 0.0
29/10:30pm 17.8 14.0 9.2 57 4.5 SSW 19 32 10 17 1011.8 1011.8 0.0
29/10:00pm 17.8 14.2 9.9 60 4.2 SSW 19 32 10 17 1012.0 1012.0 0.0
29/09:30pm 18.2 15.4 10.1 59 4.3 WSW 15 30 8 16 1011.9 1011.9 0.0
29/09:00pm 18.2 13.8 10.3 60 4.2 SSW 24 44 13 24 1012.0 1012.0 0.0
29/08:30pm 18.5 14.2 10.8 61 4.2 SSW 24 37 13 20 1011.7 1011.7 0.0
29/08:00pm 18.6 14.9 11.4 63 3.9 SSW 22 35 12 19 1011.7 1011.7 0.0
29/07:30pm 19.1 15.7 11.2 60 4.3 SSW 20 35 11 19 1011.5 1011.5 0.0
29/07:00pm 19.7 16.1 11.7 60 4.4 SSW 22 35 12 19 1011.3 1011.3 0.0
29/06:30pm 20.6 15.8 10.4 52 5.5 S 26 35 14 19 1011.0 1011.0 0.0
29/06:00pm 21.8 18.1 11.5 52 5.7 S 22 32 12 17 1010.7 1010.7 0.0
29/05:30pm 21.7 17.9 12.3 55 5.3 S 24 35 13 19 1010.6 1010.6 0.0
29/05:00pm 21.8 18.7 11.5 52 5.7 S 19 30 10 16 1010.7 1010.7 0.0
29/04:30pm 21.8 18.3 12.1 54 5.5 S 22 35 12 19 1010.9 1010.9 0.0
29/04:00pm 22.5 18.0 11.3 49 6.2 SSW 26 43 14 23 1011.3 1011.3 0.0
29/03:30pm 22.5 18.8 11.6 50 6.1 SSW 22 35 12 19 1011.3 1011.3 0.0
29/03:00pm 22.2 17.4 11.6 51 5.9 SSW 28 39 15 21 1011.7 1011.7 0.0
29/02:30pm 21.0 14.9 9.9 49 6.0 SSW 32 46 17 25 1012.1 1012.1 0.0
29/02:00pm 21.9 15.9 10.1 47 6.4 SSW 32 44 17 24 1012.1 1012.1 0.0
29/01:37pm 21.8 16.6 10.3 48 6.3 S 28 48 15 26 1012.1 1012.1 0.0
29/01:30pm 21.9 16.8 10.7 49 6.2 SSW 28 44 15 24 1012.2 1012.2 0.0
29/01:23pm 22.4 17.5 11.2 49 6.2 SSW 28 46 15 25 1012.2 1012.2 0.0
29/01:00pm 21.4 16.3 10.6 50 5.9 SSW 28 43 15 23 1012.4 1012.4 0.0
29/12:36pm 21.4 15.0 8.7 44 6.7 SW 32 50 17 27 1012.7 1012.7 0.0
29/12:30pm 21.3 15.1 9.5 47 6.3 SW 32 46 17 25 1012.6 1012.6 0.0
29/12:00pm 21.2 17.5 10.1 49 6.0 SSW 20 37 11 20 1012.8 1012.8 0.0
29/11:38am 21.3 16.2 10.5 50 5.9 S 28 46 15 25 1012.8 1012.8 0.0
29/11:30am 20.6 14.2 8.6 46 6.3 SSW 32 46 17 25 1013.0 1013.0 0.0
29/11:24am 21.2 16.0 10.1 49 6.0 SSW 28 46 15 25 1013.0 1013.0 0.0
29/11:00am 20.2 16.0 9.7 51 5.6 SSW 22 46 12 25 1013.0 1013.0 0.0
29/10:42am 20.0 14.6 9.6 51 5.5 SSW 28 46 15 25 1013.1 1013.1 0.0
29/10:30am 20.0 13.8 9.9 52 5.4 SSW 33 46 18 25 1013.1 1013.1 0.0
29/10:00am 19.2 12.4 9.1 52 5.3 SSW 35 54 19 29 1013.2 1013.2 0.0
29/09:30am 18.9 12.7 9.4 54 5.0 SSW 32 46 17 25 1013.2 1013.2 0.0
29/09:05am 18.4 12.9 9.2 55 4.8 SSW 28 50 15 27 1013.3 1013.3 0.0
29/09:00am 18.2 12.6 8.7 54 4.9 SSW 28 41 15 22 1013.2 1013.2 2.8
29/08:34am 17.8 12.2 8.9 56 4.6 SSW 28 46 15 25 1013.3 1013.3 2.8
29/08:30am 17.9 12.4 9.3 57 4.5 SSW 28 44 15 24 1013.3 1013.3 2.8
29/08:06am 17.4 11.9 9.3 59 4.2 SSW 28 46 15 25 1013.3 1013.3 2.8
29/08:00am 17.2 10.9 8.9 58 4.3 SSW 32 46 17 25 1013.2 1013.2 2.8

Other Formats:

Comma delimited format used in spreadsheet applications
http://www.bom.gov.au/fwo/IDN60801/IDN60801.95748.axf

JavaScript Object Notation format (JSON) in row-major order
http://www.bom.gov.au/fwo/IDN60801/IDN60801.95748.json